createdAt,value
2023-05-24T00:02:14.002Z,6.14
2023-05-24T00:04:41.742Z,6.15
2023-05-24T00:07:08.301Z,6.11
2023-05-24T00:09:34.853Z,6.03
2023-05-24T00:12:01.326Z,5.82
2023-05-24T00:14:28.062Z,5.76
2023-05-24T00:16:54.608Z,5.78
2023-05-24T00:19:22.591Z,5.87
2023-05-24T00:21:49.309Z,6.01
2023-05-24T00:24:17.115Z,6.10
2023-05-24T00:26:44.282Z,6.12
2023-05-24T00:29:11.041Z,5.99
2023-05-24T00:31:37.534Z,6.03
2023-05-24T00:34:04.193Z,5.98
2023-05-24T00:36:31.224Z,6.01
2023-05-24T00:38:58.240Z,6.04
2023-05-24T00:41:24.802Z,5.93
2023-05-24T00:43:51.475Z,6.02
2023-05-24T00:46:26.201Z,5.93
2023-05-24T00:48:52.877Z,5.91
2023-05-24T00:51:19.480Z,5.92
2023-05-24T00:53:47.722Z,5.70
2023-05-24T00:56:15.300Z,5.65
2023-05-24T00:58:42.761Z,5.83
2023-05-24T01:01:09.347Z,5.90
2023-05-24T01:03:36.248Z,5.84
2023-05-24T01:06:06.222Z,5.61
2023-05-24T01:08:38.934Z,5.68
2023-05-24T01:11:27.603Z,5.69
2023-05-24T01:14:17.301Z,5.68
2023-05-24T01:16:51.757Z,5.83
2023-05-24T01:19:37.186Z,5.78
2023-05-24T01:22:29.779Z,5.63
2023-05-24T01:25:04.376Z,5.67
2023-05-24T01:27:36.222Z,5.71
2023-05-24T01:30:04.351Z,5.69
2023-05-24T01:32:31.295Z,5.67
2023-05-24T01:34:58.184Z,5.77
2023-05-24T01:37:24.732Z,5.80
2023-05-24T01:39:51.483Z,5.75
2023-05-24T01:42:45.801Z,5.67
2023-05-24T01:45:36.626Z,5.81
2023-05-24T01:48:19.147Z,5.68
2023-05-24T01:50:52.437Z,5.65
2023-05-24T01:53:23.200Z,5.66
2023-05-24T01:55:53.623Z,5.75
2023-05-24T01:58:22.685Z,5.72
2023-05-24T02:00:50.901Z,5.64
2023-05-24T02:03:17.525Z,5.67
2023-05-24T02:05:45.683Z,5.67
2023-05-24T02:08:12.917Z,5.56
2023-05-24T02:10:40.744Z,5.59
2023-05-24T02:13:08.291Z,5.49
2023-05-24T02:15:35.470Z,5.59
2023-05-24T02:18:02.326Z,5.53
2023-05-24T02:20:32.103Z,5.42
2023-05-24T02:22:58.797Z,5.42
2023-05-24T02:25:25.648Z,5.51
2023-05-24T02:27:52.187Z,5.59
2023-05-24T02:30:18.818Z,5.65
2023-05-24T02:32:45.487Z,5.62
2023-05-24T02:35:12.231Z,5.59
2023-05-24T02:37:38.689Z,5.62
2023-05-24T02:40:05.786Z,5.64
2023-05-24T02:42:32.286Z,5.69
2023-05-24T02:44:58.764Z,5.71
2023-05-24T02:47:28.186Z,5.57
2023-05-24T02:49:55.449Z,5.68
2023-05-24T02:52:23.224Z,5.73
2023-05-24T02:54:50.413Z,5.57
2023-05-24T02:57:16.964Z,5.63
2023-05-24T02:59:43.590Z,5.59
2023-05-24T03:02:10.245Z,5.55
2023-05-24T03:04:36.689Z,5.51
2023-05-24T03:07:03.368Z,5.61
2023-05-24T03:09:29.877Z,5.67
2023-05-24T03:11:56.361Z,5.65
2023-05-24T03:14:24.851Z,5.66
2023-05-24T03:16:51.711Z,5.70
2023-05-24T03:19:18.498Z,5.66
2023-05-24T03:21:45.026Z,5.72
2023-05-24T03:24:13.193Z,5.66
2023-05-24T03:26:42.873Z,5.62
2023-05-24T03:29:09.289Z,5.43
2023-05-24T03:31:36.132Z,5.53
2023-05-24T03:34:02.652Z,5.35
2023-05-24T03:36:29.465Z,5.42
2023-05-24T03:38:58.552Z,5.55
2023-05-24T03:41:25.413Z,5.57
2023-05-24T03:43:52.618Z,5.49
2023-05-24T03:46:19.444Z,5.43
2023-05-24T03:48:46.268Z,5.32
2023-05-24T03:51:12.745Z,5.45
2023-05-24T03:53:39.355Z,5.43
2023-05-24T03:56:06.481Z,5.49
2023-05-24T03:58:33.044Z,5.46
2023-05-24T04:00:59.963Z,5.55
2023-05-24T04:03:28.051Z,5.62
2023-05-24T04:05:55.042Z,5.71
2023-05-24T04:08:21.674Z,5.77
2023-05-24T04:10:48.262Z,5.84
2023-05-24T04:13:14.728Z,5.92
2023-05-24T04:15:42.000Z,5.98
2023-05-24T04:18:08.690Z,5.98
2023-05-24T04:20:35.775Z,6.09
2023-05-24T04:23:02.657Z,6.07
2023-05-24T04:25:30.152Z,6.15
2023-05-24T04:27:57.224Z,6.23
2023-05-24T04:30:23.873Z,6.24
2023-05-24T04:32:50.897Z,6.21
2023-05-24T04:35:18.237Z,6.27
2023-05-24T04:37:44.795Z,6.37
2023-05-24T04:40:12.033Z,6.41
2023-05-24T04:42:38.641Z,6.51
2023-05-24T04:45:05.772Z,6.54
2023-05-24T04:47:32.379Z,6.58
2023-05-24T04:50:01.977Z,6.56
2023-05-24T04:52:28.735Z,6.73
2023-05-24T04:54:55.638Z,6.68
2023-05-24T04:57:22.308Z,6.89
2023-05-24T04:59:48.894Z,6.95
2023-05-24T05:02:15.516Z,7.02
2023-05-24T05:04:42.393Z,7.07
2023-05-24T05:07:09.000Z,7.19
2023-05-24T05:09:35.515Z,7.20
2023-05-24T05:12:02.735Z,6.98
2023-05-24T05:14:29.668Z,7.13
2023-05-24T05:16:56.163Z,7.32
2023-05-24T05:19:22.713Z,7.16
2023-05-24T05:21:49.177Z,7.50
2023-05-24T05:24:16.755Z,7.54
2023-05-24T05:26:43.336Z,7.54
2023-05-24T05:29:09.771Z,7.60
2023-05-24T05:31:36.336Z,7.61
2023-05-24T05:34:03.145Z,7.78
2023-05-24T05:36:29.621Z,7.82
2023-05-24T05:38:56.148Z,7.83
2023-05-24T05:41:22.686Z,7.94
2023-05-24T05:43:49.180Z,8.04
2023-05-24T05:46:16.241Z,8.34
2023-05-24T05:48:44.305Z,8.33
2023-05-24T05:51:12.834Z,8.38
2023-05-24T05:53:39.314Z,8.43
2023-05-24T05:56:06.335Z,8.24
2023-05-24T05:58:32.971Z,8.37
2023-05-24T06:00:59.581Z,8.34
2023-05-24T06:03:26.357Z,8.49
2023-05-24T06:05:53.074Z,8.51
2023-05-24T06:08:19.551Z,8.53
2023-05-24T06:10:46.036Z,8.61
2023-05-24T06:13:13.459Z,8.69
2023-05-24T06:15:40.757Z,8.73
2023-05-24T06:18:07.260Z,8.78
2023-05-24T06:20:33.804Z,8.90
2023-05-24T06:23:00.382Z,8.94
2023-05-24T06:25:30.746Z,9.10
2023-05-24T06:27:57.362Z,9.09
2023-05-24T06:30:24.038Z,9.18
2023-05-24T06:32:50.810Z,9.21
2023-05-24T06:35:17.353Z,9.07
2023-05-24T06:37:44.633Z,9.09
2023-05-24T06:40:11.889Z,9.26
2023-05-24T06:42:39.733Z,9.29
2023-05-24T06:45:08.441Z,9.35
2023-05-24T06:47:36.074Z,9.42
2023-05-24T06:50:04.557Z,9.18
2023-05-24T06:52:31.317Z,9.43
2023-05-24T06:54:57.789Z,9.32
2023-05-24T06:57:26.961Z,9.38
2023-05-24T06:59:53.500Z,9.30
2023-05-24T07:02:24.178Z,9.46
2023-05-24T07:04:50.708Z,9.42
2023-05-24T07:07:17.234Z,9.63
2023-05-24T07:09:44.433Z,9.83
2023-05-24T07:12:11.048Z,10.01
2023-05-24T07:14:37.557Z,9.93
2023-05-24T07:17:04.624Z,10.04
2023-05-24T07:19:31.197Z,10.01
2023-05-24T07:21:57.908Z,9.98
2023-05-24T07:24:24.935Z,10.17
2023-05-24T07:26:53.527Z,10.36
2023-05-24T07:29:21.494Z,10.41
2023-05-24T07:31:48.512Z,10.52
2023-05-24T07:34:17.749Z,10.61
2023-05-24T07:36:44.217Z,10.83
2023-05-24T07:39:10.976Z,10.69
2023-05-24T07:41:37.626Z,10.62
2023-05-24T07:44:04.334Z,10.57
2023-05-24T07:46:34.022Z,10.69
2023-05-24T07:49:03.074Z,10.79
2023-05-24T07:51:29.596Z,10.67
2023-05-24T07:53:56.407Z,10.60
2023-05-24T07:56:25.246Z,10.79
2023-05-24T07:58:56.850Z,10.73
2023-05-24T08:01:25.555Z,11.06
2023-05-24T08:03:53.036Z,11.14
2023-05-24T08:06:22.327Z,11.16
2023-05-24T08:08:48.923Z,11.30
2023-05-24T08:11:15.596Z,11.42
2023-05-24T08:13:42.025Z,11.37
2023-05-24T08:16:10.086Z,11.52
2023-05-24T08:18:36.737Z,11.51
2023-05-24T08:21:03.778Z,11.70
2023-05-24T08:23:30.702Z,11.85
2023-05-24T08:26:04.643Z,11.78
2023-05-24T08:28:31.263Z,11.88
2023-05-24T08:31:00.177Z,11.63
2023-05-24T08:33:26.756Z,12.05
2023-05-24T08:35:53.315Z,12.04
2023-05-24T08:38:19.876Z,11.99
2023-05-24T08:40:47.890Z,12.10
2023-05-24T08:43:14.983Z,12.20
2023-05-24T08:45:43.157Z,12.12
2023-05-24T08:48:10.098Z,12.52
2023-05-24T08:50:36.902Z,12.52
2023-05-24T08:53:07.021Z,12.52
2023-05-24T08:55:33.724Z,12.81
2023-05-24T08:58:00.783Z,13.01
2023-05-24T09:00:27.565Z,13.09
2023-05-24T09:02:54.411Z,13.11
2023-05-24T09:05:24.023Z,13.36
2023-05-24T09:07:53.490Z,13.35
2023-05-24T09:10:21.817Z,13.61
2023-05-24T09:12:55.066Z,13.53
2023-05-24T09:15:21.598Z,13.50
2023-05-24T09:17:48.197Z,13.57
2023-05-24T09:20:14.856Z,13.34
2023-05-24T09:22:43.108Z,13.38
2023-05-24T09:25:12.827Z,13.48
2023-05-24T09:27:39.383Z,13.51
2023-05-24T09:30:10.498Z,13.58
2023-05-24T09:32:37.359Z,13.63
2023-05-24T09:35:09.161Z,13.71
2023-05-24T09:37:38.574Z,13.75
2023-05-24T09:40:07.229Z,13.62
2023-05-24T09:42:33.964Z,13.49
2023-05-24T09:45:09.578Z,13.42
2023-05-24T09:47:37.874Z,13.54
2023-05-24T09:50:07.187Z,13.59
2023-05-24T09:52:37.292Z,13.51
2023-05-24T09:55:18.052Z,13.63
2023-05-24T09:57:45.641Z,13.76
2023-05-24T10:00:21.742Z,13.95
2023-05-24T10:03:04.898Z,13.87
2023-05-24T10:05:32.114Z,13.91
2023-05-24T10:07:59.243Z,13.99
2023-05-24T10:10:31.058Z,13.91
2023-05-24T10:12:58.980Z,13.70
2023-05-24T10:15:27.049Z,13.92
2023-05-24T10:17:58.102Z,13.86
2023-05-24T10:20:25.083Z,13.88
2023-05-24T10:23:01.953Z,14.03
2023-05-24T10:25:29.914Z,14.01
2023-05-24T10:28:04.383Z,14.04
2023-05-24T10:30:59.484Z,14.00
2023-05-24T10:33:36.547Z,14.16
2023-05-24T10:36:13.154Z,14.25
2023-05-24T10:38:43.689Z,14.22
2023-05-24T10:41:13.039Z,14.13
2023-05-24T10:43:40.333Z,14.10
2023-05-24T10:46:09.708Z,14.14
2023-05-24T10:48:38.478Z,14.16
2023-05-24T10:51:34.892Z,14.24
2023-05-24T10:54:16.875Z,14.26
2023-05-24T10:56:48.916Z,14.39
2023-05-24T10:59:38.070Z,14.32
2023-05-24T11:02:16.474Z,14.17
2023-05-24T11:04:46.605Z,14.11
2023-05-24T11:07:17.147Z,13.99
2023-05-24T11:09:46.899Z,14.01
2023-05-24T11:12:18.206Z,13.90
2023-05-24T11:14:52.560Z,14.13
2023-05-24T11:17:22.462Z,14.36
2023-05-24T11:19:54.126Z,14.43
2023-05-24T11:22:22.598Z,14.39
2023-05-24T11:24:49.265Z,14.32
2023-05-24T11:27:15.917Z,14.40
2023-05-24T11:29:47.561Z,14.31
2023-05-24T11:32:21.283Z,14.27
2023-05-24T11:34:48.663Z,14.29
2023-05-24T11:37:17.573Z,14.39
2023-05-24T11:39:50.475Z,14.41
2023-05-24T11:42:17.462Z,14.38
2023-05-24T11:44:44.009Z,14.36
2023-05-24T11:47:11.898Z,14.44
2023-05-24T11:49:38.399Z,14.46
2023-05-24T11:52:05.111Z,14.34
2023-05-24T11:54:34.988Z,14.49
2023-05-24T11:57:02.176Z,14.41
2023-05-24T11:59:29.508Z,14.42
2023-05-24T12:02:04.523Z,14.53
2023-05-24T12:04:33.127Z,14.58
2023-05-24T12:07:00.244Z,14.40
2023-05-24T12:09:27.726Z,14.49
2023-05-24T12:11:54.624Z,14.51
2023-05-24T12:14:40.521Z,14.46
2023-05-24T12:17:16.022Z,14.46
2023-05-24T12:19:43.341Z,14.39
2023-05-24T12:22:10.633Z,14.32
2023-05-24T12:24:37.906Z,14.36
2023-05-24T12:27:08.779Z,14.23
2023-05-24T12:29:41.930Z,14.14
2023-05-24T12:32:14.622Z,14.21
2023-05-24T12:34:43.798Z,14.28
2023-05-24T12:37:12.375Z,14.34
2023-05-24T12:39:39.827Z,14.35
2023-05-24T12:42:06.915Z,14.35
2023-05-24T12:44:38.196Z,14.42
2023-05-24T12:47:06.899Z,14.54
2023-05-24T12:49:33.568Z,14.65
2023-05-24T12:52:01.898Z,14.72
2023-05-24T12:54:29.283Z,14.78
2023-05-24T12:56:57.552Z,14.77
2023-05-24T12:59:25.419Z,14.71
2023-05-24T13:01:52.492Z,14.86
2023-05-24T13:04:21.705Z,15.13
2023-05-24T13:06:49.016Z,15.10
2023-05-24T13:09:18.097Z,15.03
2023-05-24T13:11:45.427Z,15.03
2023-05-24T13:14:12.463Z,15.16
2023-05-24T13:16:39.060Z,15.13
2023-05-24T13:19:05.613Z,15.11
2023-05-24T13:21:32.382Z,14.97
2023-05-24T13:23:59.340Z,14.97
2023-05-24T13:26:25.857Z,15.16
2023-05-24T13:31:22.355Z,14.94
2023-05-24T13:33:49.229Z,14.75
2023-05-24T13:36:17.119Z,14.80
2023-05-24T13:38:43.606Z,14.67
2023-05-24T13:41:10.085Z,14.55
2023-05-24T13:43:36.989Z,14.60
2023-05-24T13:46:03.663Z,14.75
2023-05-24T13:48:30.449Z,14.74
2023-05-24T13:50:57.119Z,14.84
2023-05-24T13:53:23.760Z,14.98
2023-05-24T13:55:50.392Z,15.03
2023-05-24T13:58:16.975Z,15.18
2023-05-24T14:00:44.093Z,15.14
2023-05-24T14:03:13.034Z,15.01
2023-05-24T14:05:40.888Z,14.89
2023-05-24T14:08:07.642Z,14.76
2023-05-24T14:10:37.432Z,14.63
2023-05-24T14:13:28.902Z,14.67
2023-05-24T14:15:52.800Z,14.58
2023-05-24T14:18:19.352Z,14.57
2023-05-24T14:20:45.970Z,14.50
2023-05-24T14:23:12.888Z,14.43
2023-05-24T14:25:39.562Z,14.47
2023-05-24T14:28:08.728Z,14.34
2023-05-24T14:30:37.850Z,14.35
2023-05-24T14:33:06.418Z,14.14
2023-05-24T14:35:38.295Z,13.75
2023-05-24T14:38:06.502Z,13.97
2023-05-24T14:40:34.276Z,14.11
2023-05-24T14:43:01.007Z,14.19
2023-05-24T14:45:27.530Z,14.70
2023-05-24T14:47:54.131Z,14.85
2023-05-24T14:50:21.502Z,14.80
2023-05-24T14:52:48.049Z,14.70
2023-05-24T14:55:14.736Z,14.43
2023-05-24T14:57:42.262Z,14.36
2023-05-24T15:00:10.594Z,14.26
2023-05-24T15:02:37.485Z,14.19
2023-05-24T15:05:04.733Z,13.96
2023-05-24T15:07:31.833Z,14.13
2023-05-24T15:09:58.510Z,13.90
2023-05-24T15:12:25.102Z,13.95
2023-05-24T15:14:51.616Z,13.65
2023-05-24T15:17:20.942Z,13.91
2023-05-24T15:19:48.264Z,13.41
2023-05-24T15:22:14.923Z,13.38
2023-05-24T15:24:41.433Z,13.40
2023-05-24T15:27:08.007Z,13.25
2023-05-24T15:29:34.587Z,13.31
2023-05-24T15:32:01.571Z,13.12
2023-05-24T15:34:28.291Z,13.16
2023-05-24T15:36:54.916Z,13.01
2023-05-24T15:39:21.623Z,13.05
2023-05-24T15:41:48.144Z,12.94
2023-05-24T15:44:14.673Z,12.81
2023-05-24T15:46:41.408Z,12.82
2023-05-24T15:49:08.022Z,12.76
2023-05-24T15:54:06.146Z,12.48
2023-05-24T15:56:32.858Z,12.69
2023-05-24T15:58:59.372Z,12.48
2023-05-24T16:01:26.067Z,12.59
2023-05-24T16:03:52.659Z,12.78
2023-05-24T16:06:19.292Z,12.71
2023-05-24T16:08:45.921Z,12.61
2023-05-24T16:11:13.444Z,12.77
2023-05-24T16:13:39.940Z,12.85
2023-05-24T16:16:06.502Z,13.00
2023-05-24T16:18:34.714Z,12.97
2023-05-24T16:21:01.580Z,12.98
2023-05-24T16:23:28.110Z,12.85
2023-05-24T16:25:54.635Z,12.69
2023-05-24T16:28:25.096Z,12.80
2023-05-24T16:30:55.564Z,12.84
2023-05-24T16:33:23.398Z,12.88
2023-05-24T16:35:55.292Z,12.80
2023-05-24T16:38:23.465Z,12.83
2023-05-24T16:40:50.880Z,12.92
2023-05-24T16:43:18.031Z,12.85
2023-05-24T16:45:44.958Z,12.90
2023-05-24T16:48:12.182Z,12.94
2023-05-24T16:50:39.064Z,12.82
2023-05-24T16:53:06.795Z,12.75
2023-05-24T16:55:34.467Z,12.84
2023-05-24T16:58:01.001Z,12.86
2023-05-24T17:00:27.848Z,12.88
2023-05-24T17:02:54.790Z,12.79
2023-05-24T17:05:21.349Z,12.80
2023-05-24T17:07:47.790Z,12.67
2023-05-24T17:10:14.327Z,12.61
2023-05-24T17:12:41.385Z,12.49
2023-05-24T17:15:08.699Z,12.40
2023-05-24T17:17:35.303Z,12.47
2023-05-24T17:20:01.926Z,12.56
2023-05-24T17:22:28.400Z,12.54
2023-05-24T17:24:54.963Z,12.50
2023-05-24T17:27:22.522Z,12.36
2023-05-24T17:29:49.291Z,12.28
2023-05-24T17:32:15.735Z,12.36
2023-05-24T17:34:43.267Z,12.39
2023-05-24T17:37:09.746Z,12.33
2023-05-24T17:39:36.324Z,12.33
2023-05-24T17:42:03.009Z,12.25
2023-05-24T17:44:29.572Z,12.03
2023-05-24T17:46:57.440Z,12.26
2023-05-24T17:49:24.091Z,12.21
2023-05-24T17:51:50.652Z,12.04
2023-05-24T17:54:17.145Z,12.08
2023-05-24T17:56:43.635Z,12.10
2023-05-24T17:59:10.157Z,12.17
2023-05-24T18:01:36.696Z,12.15
2023-05-24T18:04:03.255Z,12.17
2023-05-24T18:06:29.846Z,12.32
2023-05-24T18:08:58.009Z,12.30
2023-05-24T18:11:24.523Z,12.25
2023-05-24T18:13:52.127Z,12.23
2023-05-24T18:16:18.709Z,12.10
2023-05-24T18:18:45.260Z,12.13
2023-05-24T18:21:13.087Z,12.13
2023-05-24T18:23:39.640Z,12.03
2023-05-24T18:26:07.792Z,12.08
2023-05-24T18:28:37.536Z,12.14
2023-05-24T18:31:10.908Z,12.14
2023-05-24T18:33:40.917Z,12.04
2023-05-24T18:36:07.730Z,12.03
2023-05-24T18:38:34.776Z,11.98
2023-05-24T18:41:04.800Z,11.89
2023-05-24T18:43:32.331Z,11.94
2023-05-24T18:45:58.862Z,11.84
2023-05-24T18:48:25.387Z,11.70
2023-05-24T18:50:52.073Z,11.71
2023-05-24T18:53:18.557Z,11.67
2023-05-24T18:55:47.016Z,11.61
2023-05-24T18:58:14.582Z,11.64
2023-05-24T19:00:41.282Z,11.55
2023-05-24T19:03:10.943Z,11.55
2023-05-24T19:05:38.517Z,11.51
2023-05-24T19:08:06.728Z,11.47
2023-05-24T19:10:33.334Z,11.43
2023-05-24T19:13:01.098Z,11.36
2023-05-24T19:15:28.156Z,11.36
2023-05-24T19:17:55.675Z,11.25
2023-05-24T19:20:22.291Z,11.18
2023-05-24T19:22:48.979Z,11.22
2023-05-24T19:25:15.743Z,11.13
2023-05-24T19:27:57.890Z,11.05
2023-05-24T19:30:26.159Z,10.97
2023-05-24T19:32:52.789Z,11.00
2023-05-24T19:35:19.342Z,10.89
2023-05-24T19:37:45.894Z,10.84
2023-05-24T19:40:12.331Z,10.85
2023-05-24T19:42:38.826Z,10.80
2023-05-24T19:45:06.113Z,10.72
2023-05-24T19:47:32.584Z,10.69
2023-05-24T19:49:59.094Z,10.64
2023-05-24T19:52:25.536Z,10.55
2023-05-24T19:54:53.207Z,10.42
2023-05-24T19:57:19.615Z,10.50
2023-05-24T19:59:46.108Z,10.48
2023-05-24T20:02:12.595Z,10.43
2023-05-24T20:04:41.887Z,10.40
2023-05-24T20:07:08.941Z,10.35
2023-05-24T20:09:35.931Z,10.35
2023-05-24T20:12:03.067Z,10.33
2023-05-24T20:14:31.515Z,10.20
2023-05-24T20:16:59.089Z,10.23
2023-05-24T20:19:27.220Z,10.21
2023-05-24T20:21:54.142Z,10.18
2023-05-24T20:24:20.770Z,10.17
2023-05-24T20:26:47.202Z,10.04
2023-05-24T20:29:13.668Z,10.07
2023-05-24T20:31:40.157Z,10.07
2023-05-24T20:34:06.730Z,9.97
2023-05-24T20:36:33.372Z,10.03
2023-05-24T20:38:59.844Z,10.02
2023-05-24T20:41:26.694Z,10.03
2023-05-24T20:43:53.301Z,10.09
2023-05-24T20:46:19.884Z,10.00
2023-05-24T20:48:46.726Z,9.99
2023-05-24T20:51:13.263Z,9.86
2023-05-24T20:53:40.339Z,9.91
2023-05-24T20:56:07.261Z,9.82
2023-05-24T20:58:33.829Z,9.77
2023-05-24T21:01:00.524Z,9.75
2023-05-24T21:03:27.117Z,9.81
2023-05-24T21:05:53.797Z,9.58
2023-05-24T21:08:20.377Z,9.75
2023-05-24T21:10:46.958Z,9.67
2023-05-24T21:13:13.368Z,9.67
2023-05-24T21:15:39.773Z,9.67
2023-05-24T21:18:06.483Z,9.70
2023-05-24T21:20:33.133Z,9.66
2023-05-24T21:23:00.536Z,9.65
2023-05-24T21:25:27.139Z,9.59
2023-05-24T21:27:53.594Z,9.51
2023-05-24T21:30:20.053Z,9.47
2023-05-24T21:32:46.652Z,9.48
2023-05-24T21:35:13.338Z,9.50
2023-05-24T21:37:39.958Z,9.51
2023-05-24T21:40:06.966Z,9.54
2023-05-24T21:42:33.448Z,9.52
2023-05-24T21:44:59.943Z,9.48
2023-05-24T21:47:26.578Z,9.47
2023-05-24T21:49:54.895Z,9.42
2023-05-24T21:52:21.804Z,9.34
2023-05-24T21:54:48.304Z,9.38
2023-05-24T21:57:14.741Z,9.36
2023-05-24T21:59:41.308Z,9.33
2023-05-24T22:02:07.959Z,9.36
2023-05-24T22:04:34.559Z,9.28
2023-05-24T22:07:01.088Z,9.31
2023-05-24T22:09:27.532Z,9.31
2023-05-24T22:11:54.047Z,9.22
2023-05-24T22:14:20.568Z,9.26
2023-05-24T22:16:47.103Z,9.27
2023-05-24T22:19:16.492Z,9.29
2023-05-24T22:21:43.690Z,9.26
2023-05-24T22:24:10.688Z,9.24
2023-05-24T22:26:37.291Z,9.23
2023-05-24T22:29:04.318Z,9.26
2023-05-24T22:31:33.428Z,9.25
2023-05-24T22:34:02.334Z,9.24
2023-05-24T22:36:33.006Z,9.27
2023-05-24T22:39:00.356Z,9.26
2023-05-24T22:41:26.982Z,9.23
2023-05-24T22:43:54.267Z,9.22
2023-05-24T22:46:22.278Z,9.20
2023-05-24T22:48:52.476Z,9.15
2023-05-24T22:51:20.175Z,9.09
2023-05-24T22:53:47.645Z,9.09
2023-05-24T22:56:14.084Z,9.06
2023-05-24T22:58:40.682Z,9.06
2023-05-24T23:01:07.204Z,9.10
2023-05-24T23:03:33.692Z,9.14
2023-05-24T23:06:04.224Z,9.07
2023-05-24T23:08:32.222Z,9.02
2023-05-24T23:11:01.796Z,8.93
2023-05-24T23:13:33.804Z,8.93
2023-05-24T23:16:00.497Z,8.90
2023-05-24T23:18:27.982Z,8.95
2023-05-24T23:20:56.273Z,9.01
2023-05-24T23:23:24.776Z,8.99
2023-05-24T23:25:51.595Z,8.86
2023-05-24T23:28:18.269Z,8.92
2023-05-24T23:30:45.213Z,8.92
2023-05-24T23:33:11.635Z,8.86
2023-05-24T23:35:39.651Z,8.80
2023-05-24T23:38:06.558Z,8.84
2023-05-24T23:40:33.817Z,8.83
2023-05-24T23:43:00.629Z,8.88
2023-05-24T23:45:27.134Z,8.81
2023-05-24T23:47:53.770Z,8.80
2023-05-24T23:50:22.559Z,8.80
2023-05-24T23:52:49.772Z,8.83
2023-05-24T23:55:16.399Z,8.81
2023-05-24T23:57:42.996Z,8.76
